createdAt,value
2023-04-15T00:01:05.730Z,61.54
2023-04-15T00:03:32.380Z,61.53
2023-04-15T00:05:59.265Z,61.49
2023-04-15T00:08:25.844Z,61.43
2023-04-15T00:10:52.148Z,61.75
2023-04-15T00:13:18.528Z,61.71
2023-04-15T00:15:44.958Z,61.78
2023-04-15T00:18:11.624Z,61.47
2023-04-15T00:20:38.044Z,61.63
2023-04-15T00:23:05.313Z,61.53
2023-04-15T00:25:31.701Z,61.49
2023-04-15T00:27:58.136Z,61.59
2023-04-15T00:30:25.042Z,61.54
2023-04-15T00:32:51.390Z,61.80
2023-04-15T00:35:17.766Z,61.62
2023-04-15T00:37:46.058Z,61.81
2023-04-15T00:40:12.859Z,61.53
2023-04-15T00:42:39.604Z,61.39
2023-04-15T00:45:06.008Z,61.76
2023-04-15T00:47:32.398Z,61.37
2023-04-15T00:49:58.998Z,61.70
2023-04-15T00:52:25.430Z,61.54
2023-04-15T00:54:52.154Z,61.75
2023-04-15T00:57:18.490Z,61.67
2023-04-15T00:59:44.999Z,61.65
2023-04-15T01:02:11.773Z,61.73
2023-04-15T01:04:38.480Z,61.67
2023-04-15T01:07:04.941Z,61.71
2023-04-15T01:09:31.347Z,61.46
2023-04-15T01:11:57.782Z,61.68
2023-04-15T01:14:24.219Z,61.58
2023-04-15T01:16:50.649Z,61.65
2023-04-15T01:19:17.136Z,61.60
2023-04-15T01:21:43.692Z,61.55
2023-04-15T01:24:10.064Z,61.63
2023-04-15T01:26:36.543Z,61.49
2023-04-15T01:29:03.331Z,61.41
2023-04-15T01:31:29.827Z,61.40
2023-04-15T01:33:56.224Z,61.28
2023-04-15T01:36:22.568Z,61.33
2023-04-15T01:38:48.943Z,61.39
2023-04-15T01:41:15.310Z,61.49
2023-04-15T01:43:41.926Z,61.25
2023-04-15T01:46:08.304Z,61.61
2023-04-15T01:48:35.135Z,61.52
2023-04-15T01:51:01.815Z,61.63
2023-04-15T01:53:28.408Z,61.39
2023-04-15T01:55:54.719Z,61.58
2023-04-15T01:58:21.239Z,61.31
2023-04-15T02:00:47.648Z,61.50
2023-04-15T02:03:14.080Z,61.46
2023-04-15T02:05:40.847Z,61.43
2023-04-15T02:08:07.522Z,61.20
2023-04-15T02:10:33.938Z,61.26
2023-04-15T02:13:00.274Z,61.30
2023-04-15T02:15:26.733Z,61.27
2023-04-15T02:17:53.060Z,61.17
2023-04-15T02:20:20.138Z,61.47
2023-04-15T02:22:46.900Z,61.47
2023-04-15T02:25:13.291Z,61.53
2023-04-15T02:27:40.142Z,61.39
2023-04-15T02:30:06.964Z,61.21
2023-04-15T02:32:33.339Z,61.22
2023-04-15T02:34:59.762Z,61.52
2023-04-15T02:37:26.162Z,61.42
2023-04-15T02:39:53.093Z,61.51
2023-04-15T02:42:19.852Z,61.19
2023-04-15T02:44:46.908Z,61.25
2023-04-15T02:47:13.425Z,61.44
2023-04-15T02:49:39.685Z,61.54
2023-04-15T02:52:06.438Z,61.09
2023-04-15T02:54:32.796Z,61.42
2023-04-15T02:56:59.139Z,61.32
2023-04-15T02:59:25.475Z,61.27
2023-04-15T03:01:52.114Z,61.23
2023-04-15T03:04:18.873Z,61.40
2023-04-15T03:06:45.707Z,61.21
2023-04-15T03:09:12.147Z,61.50
2023-04-15T03:11:38.506Z,61.33
2023-04-15T03:14:05.351Z,61.29
2023-04-15T03:16:31.666Z,61.20
2023-04-15T03:18:58.026Z,61.45
2023-04-15T03:21:24.469Z,61.19
2023-04-15T03:23:50.929Z,61.31
2023-04-15T03:26:17.272Z,61.45
2023-04-15T03:28:43.635Z,61.57
2023-04-15T03:31:10.190Z,61.42
2023-04-15T03:33:36.674Z,61.41
2023-04-15T03:36:03.040Z,61.32
2023-04-15T03:38:29.685Z,61.20
2023-04-15T03:40:56.039Z,61.56
2023-04-15T03:43:22.678Z,61.44
2023-04-15T03:45:49.084Z,61.54
2023-04-15T03:48:18.080Z,61.54
2023-04-15T03:50:45.499Z,61.27
2023-04-15T03:53:11.822Z,61.33
2023-04-15T03:55:38.183Z,61.40
2023-04-15T03:58:04.961Z,61.33
2023-04-15T04:00:31.299Z,61.68
2023-04-15T04:02:58.334Z,61.16
2023-04-15T04:05:25.440Z,61.53
2023-04-15T04:07:51.813Z,61.35
2023-04-15T04:10:18.364Z,61.19
2023-04-15T04:12:45.085Z,61.28
2023-04-15T04:15:11.358Z,61.55
2023-04-15T04:17:38.029Z,61.65
2023-04-15T04:20:04.522Z,61.41
2023-04-15T04:22:31.157Z,61.56
2023-04-15T04:24:57.548Z,61.25
2023-04-15T04:27:24.729Z,61.27
2023-04-15T04:29:51.601Z,61.49
2023-04-15T04:32:18.028Z,61.24
2023-04-15T04:34:44.382Z,61.62
2023-04-15T04:37:10.750Z,61.61
2023-04-15T04:39:37.304Z,61.59
2023-04-15T04:42:03.924Z,61.48
2023-04-15T04:44:30.555Z,61.56
2023-04-15T04:46:57.077Z,61.32
2023-04-15T04:49:23.425Z,61.40
2023-04-15T04:51:49.770Z,61.29
2023-04-15T04:54:16.275Z,61.60
2023-04-15T04:56:42.608Z,61.34
2023-04-15T04:59:09.024Z,61.32
2023-04-15T05:01:35.567Z,61.33
2023-04-15T05:04:02.337Z,61.41
2023-04-15T05:06:28.803Z,61.62
2023-04-15T05:08:55.356Z,61.35
2023-04-15T05:11:21.988Z,61.62
2023-04-15T05:13:48.330Z,61.45
2023-04-15T05:16:15.260Z,61.46
2023-04-15T05:18:41.643Z,61.59
2023-04-15T05:21:08.185Z,61.63
2023-04-15T05:23:35.028Z,61.39
2023-04-15T05:26:01.853Z,61.59
2023-04-15T05:28:28.211Z,61.40
2023-04-15T05:30:54.884Z,61.39
2023-04-15T05:33:21.299Z,61.58
2023-04-15T05:35:47.836Z,61.60
2023-04-15T05:38:14.319Z,61.42
2023-04-15T05:40:40.736Z,61.51
2023-04-15T05:43:07.235Z,61.32
2023-04-15T05:45:33.670Z,61.53
2023-04-15T05:48:00.134Z,61.77
2023-04-15T05:50:26.550Z,61.38
2023-04-15T05:52:52.967Z,61.43
2023-04-15T05:55:19.872Z,61.43
2023-04-15T05:57:46.227Z,61.68
2023-04-15T06:00:12.576Z,61.59
2023-04-15T06:02:39.298Z,61.31
2023-04-15T06:05:05.855Z,61.76
2023-04-15T06:07:32.875Z,61.73
2023-04-15T06:09:59.724Z,61.43
2023-04-15T06:12:26.141Z,61.54
2023-04-15T06:14:52.474Z,61.47
2023-04-15T06:17:19.253Z,61.32
2023-04-15T06:19:46.113Z,61.47
2023-04-15T06:22:12.670Z,61.52
2023-04-15T06:24:39.449Z,61.62
2023-04-15T06:27:06.224Z,61.67
2023-04-15T06:29:32.538Z,61.48
2023-04-15T06:31:59.093Z,61.38
2023-04-15T06:34:25.608Z,61.42
2023-04-15T06:36:51.966Z,61.72
2023-04-15T06:39:18.438Z,61.52
2023-04-15T06:41:45.704Z,61.71
2023-04-15T06:44:12.098Z,61.52
2023-04-15T06:46:38.446Z,61.37
2023-04-15T06:49:05.371Z,61.58
2023-04-15T06:51:31.948Z,61.68
2023-04-15T06:53:58.598Z,61.76
2023-04-15T06:56:24.970Z,61.58
2023-04-15T06:58:51.685Z,61.57
2023-04-15T07:01:18.138Z,61.47
2023-04-15T07:03:44.488Z,61.70
2023-04-15T07:06:11.000Z,61.58
2023-04-15T07:08:37.888Z,61.69
2023-04-15T07:11:04.952Z,61.57
2023-04-15T07:13:31.274Z,61.64
2023-04-15T07:15:57.604Z,61.79
2023-04-15T07:18:24.048Z,61.83
2023-04-15T07:20:50.838Z,61.78
2023-04-15T07:23:17.620Z,61.67
2023-04-15T07:25:44.247Z,61.66
2023-04-15T07:28:10.582Z,61.71
2023-04-15T07:30:37.383Z,62.37
2023-04-15T07:33:03.842Z,62.50
2023-04-15T07:35:30.277Z,61.95
2023-04-15T07:37:56.727Z,61.99
2023-04-15T07:40:23.032Z,62.23
2023-04-15T07:42:49.426Z,61.97
2023-04-15T07:45:15.924Z,61.92
2023-04-15T07:47:42.325Z,62.13
2023-04-15T07:50:08.808Z,62.13
2023-04-15T07:52:35.340Z,62.12
2023-04-15T07:55:01.722Z,62.07
2023-04-15T07:57:28.662Z,61.83
2023-04-15T07:59:55.385Z,61.99
2023-04-15T08:02:22.348Z,62.21
2023-04-15T08:04:49.148Z,62.17
2023-04-15T08:07:15.830Z,62.15
2023-04-15T08:09:42.214Z,62.27
2023-04-15T08:12:08.665Z,62.23
2023-04-15T08:14:35.378Z,62.08
2023-04-15T08:17:01.749Z,62.16
2023-04-15T08:19:28.810Z,62.52
2023-04-15T08:21:55.168Z,62.43
2023-04-15T08:24:21.948Z,62.47
2023-04-15T08:26:48.513Z,62.22
2023-04-15T08:29:15.205Z,62.50
2023-04-15T08:31:41.538Z,61.95
2023-04-15T08:34:08.066Z,61.96
2023-04-15T08:36:34.854Z,61.88
2023-04-15T08:39:01.724Z,62.07
2023-04-15T08:41:28.261Z,62.25
2023-04-15T08:43:55.207Z,62.70
2023-04-15T08:46:21.587Z,62.26
2023-04-15T08:48:48.191Z,62.45
2023-04-15T08:51:14.774Z,62.28
2023-04-15T08:53:41.413Z,62.28
2023-04-15T08:56:08.211Z,62.43
2023-04-15T08:58:35.401Z,62.20
2023-04-15T09:01:02.088Z,62.47
2023-04-15T09:03:28.657Z,62.12
2023-04-15T09:05:55.208Z,62.25
2023-04-15T09:08:21.623Z,62.53
2023-04-15T09:10:48.005Z,62.52
2023-04-15T09:13:15.365Z,62.76
2023-04-15T09:15:41.991Z,62.09
2023-04-15T09:18:08.535Z,62.21
2023-04-15T09:20:35.485Z,62.52
2023-04-15T09:23:01.995Z,62.55
2023-04-15T09:25:28.418Z,62.50
2023-04-15T09:27:54.765Z,62.41
2023-04-15T09:30:21.155Z,62.76
2023-04-15T09:32:47.719Z,62.64
2023-04-15T09:35:14.131Z,62.45
2023-04-15T09:37:40.414Z,62.44
2023-04-15T09:40:06.724Z,62.52
2023-04-15T09:42:33.298Z,62.44
2023-04-15T09:44:59.757Z,62.87
2023-04-15T09:47:26.097Z,63.00
2023-04-15T09:49:52.860Z,62.96
2023-04-15T09:52:19.196Z,62.65
2023-04-15T09:54:45.513Z,62.99
2023-04-15T09:57:12.855Z,62.69
2023-04-15T09:59:39.717Z,62.81
2023-04-15T10:02:06.796Z,63.00
2023-04-15T10:04:33.267Z,62.94
2023-04-15T10:06:59.589Z,63.04
2023-04-15T10:09:25.955Z,62.54
2023-04-15T10:11:52.282Z,62.93
2023-04-15T10:14:18.808Z,62.80
2023-04-15T10:16:45.133Z,63.15
2023-04-15T10:19:11.600Z,63.12
2023-04-15T10:21:38.029Z,63.18
2023-04-15T10:24:04.587Z,62.91
2023-04-15T10:26:31.566Z,62.94
2023-04-15T10:28:59.605Z,63.14
2023-04-15T10:31:27.410Z,63.11
2023-04-15T10:33:53.920Z,63.05
2023-04-15T10:36:20.411Z,62.93
2023-04-15T10:38:47.629Z,63.28
2023-04-15T10:41:14.328Z,63.39
2023-04-15T10:43:41.223Z,63.51
2023-04-15T10:46:07.959Z,63.54
2023-04-15T10:48:34.293Z,63.26
2023-04-15T10:51:00.652Z,63.39
2023-04-15T10:53:27.051Z,63.69
2023-04-15T10:55:53.571Z,63.58
2023-04-15T10:58:20.426Z,63.70
2023-04-15T11:00:46.738Z,63.71
2023-04-15T11:03:13.717Z,63.66
2023-04-15T11:05:41.340Z,63.84
2023-04-15T11:08:07.698Z,63.50
2023-04-15T11:10:34.075Z,63.45
2023-04-15T11:13:01.109Z,63.46
2023-04-15T11:15:28.186Z,63.90
2023-04-15T11:17:54.771Z,63.55
2023-04-15T11:20:21.098Z,64.26
2023-04-15T11:22:47.403Z,64.33
2023-04-15T11:25:13.688Z,63.94
2023-04-15T11:27:40.450Z,64.08
2023-04-15T11:30:07.328Z,64.33
2023-04-15T11:32:34.071Z,64.19
2023-04-15T11:35:00.552Z,64.79
2023-04-15T11:37:27.389Z,63.96
2023-04-15T11:39:53.716Z,63.51
2023-04-15T11:42:20.044Z,63.99
2023-04-15T11:44:46.851Z,64.73
2023-04-15T11:47:13.451Z,64.96
2023-04-15T11:49:39.791Z,65.23
2023-04-15T11:52:06.249Z,65.33
2023-04-15T11:54:32.653Z,65.66
2023-04-15T11:56:58.996Z,65.70
2023-04-15T11:59:30.257Z,66.12
2023-04-15T12:02:02.143Z,66.22
2023-04-15T12:04:28.800Z,66.25
2023-04-15T12:06:55.385Z,66.39
2023-04-15T12:09:21.907Z,66.70
2023-04-15T12:11:48.554Z,66.72
2023-04-15T12:14:15.389Z,66.87
2023-04-15T12:16:49.104Z,67.17
2023-04-15T12:19:16.574Z,67.03
2023-04-15T12:21:43.862Z,66.95
2023-04-15T12:24:10.233Z,67.02
2023-04-15T12:26:37.146Z,67.20
2023-04-15T12:29:03.482Z,67.06
2023-04-15T12:31:29.905Z,67.20
2023-04-15T12:33:56.550Z,67.10
2023-04-15T12:36:23.861Z,67.17
2023-04-15T12:38:50.227Z,67.53
2023-04-15T12:41:16.813Z,67.28
2023-04-15T12:43:43.691Z,67.47
2023-04-15T12:46:10.266Z,67.53
2023-04-15T12:48:36.651Z,67.14
2023-04-15T12:51:05.560Z,67.41
2023-04-15T12:53:32.082Z,67.40
2023-04-15T12:55:58.455Z,67.63
2023-04-15T12:58:24.921Z,67.34
2023-04-15T13:00:51.488Z,67.44
2023-04-15T13:03:17.863Z,67.58
2023-04-15T13:05:44.560Z,67.59
2023-04-15T13:08:11.230Z,67.47
2023-04-15T13:10:37.629Z,67.79
2023-04-15T13:13:04.011Z,67.53
2023-04-15T13:15:30.411Z,67.50
2023-04-15T13:17:57.416Z,67.89
2023-04-15T13:20:23.806Z,67.71
2023-04-15T13:22:50.102Z,67.65
2023-04-15T13:25:16.530Z,67.69
2023-04-15T13:27:43.248Z,67.53
2023-04-15T13:30:09.787Z,67.47
2023-04-15T13:32:36.255Z,67.35
2023-04-15T13:35:03.270Z,67.79
2023-04-15T13:37:29.579Z,67.52
2023-04-15T13:39:55.946Z,67.65
2023-04-15T13:42:22.299Z,67.77
2023-04-15T13:44:49.249Z,67.56
2023-04-15T13:47:15.854Z,67.43
2023-04-15T13:49:42.392Z,67.73
2023-04-15T13:52:08.750Z,67.88
2023-04-15T13:54:37.204Z,67.87
2023-04-15T13:57:04.449Z,68.03
2023-04-15T13:59:30.782Z,67.94
2023-04-15T14:01:57.322Z,68.18
2023-04-15T14:04:23.966Z,67.89
2023-04-15T14:06:50.585Z,68.35
2023-04-15T14:09:16.958Z,68.36
2023-04-15T14:11:43.313Z,68.77
2023-04-15T14:14:10.109Z,68.66
2023-04-15T14:16:36.526Z,68.27
2023-04-15T14:19:03.335Z,67.90
2023-04-15T14:21:30.277Z,68.01
2023-04-15T14:23:56.658Z,68.09
2023-04-15T14:26:23.628Z,68.05
2023-04-15T14:28:49.995Z,68.01
2023-04-15T14:31:16.375Z,67.90
2023-04-15T14:33:42.704Z,67.81
2023-04-15T14:36:09.072Z,67.98
2023-04-15T14:38:35.887Z,67.98
2023-04-15T14:41:02.259Z,68.14
2023-04-15T14:43:28.612Z,68.35
2023-04-15T14:45:55.019Z,68.08
2023-04-15T14:48:21.362Z,68.21
2023-04-15T14:50:47.870Z,68.19
2023-04-15T14:53:14.261Z,68.43
2023-04-15T14:55:40.631Z,68.33
2023-04-15T14:58:06.987Z,68.11
2023-04-15T15:00:33.613Z,68.45
2023-04-15T15:03:00.332Z,68.19
2023-04-15T15:05:26.852Z,68.42
2023-04-15T15:07:54.187Z,68.21
2023-04-15T15:10:32.756Z,68.25
2023-04-15T15:13:06.829Z,68.29
2023-04-15T15:15:33.175Z,68.57
2023-04-15T15:17:59.687Z,68.25
2023-04-15T15:20:26.129Z,68.11
2023-04-15T15:22:52.497Z,68.30
2023-04-15T15:25:18.849Z,68.41
2023-04-15T15:27:45.174Z,68.50
2023-04-15T15:30:11.480Z,68.53
2023-04-15T15:32:37.920Z,68.34
2023-04-15T15:35:04.473Z,68.34
2023-04-15T15:37:31.195Z,68.50
2023-04-15T15:39:57.789Z,68.30
2023-04-15T15:42:24.220Z,68.55
2023-04-15T15:44:50.593Z,68.21
2023-04-15T15:47:16.989Z,68.46
2023-04-15T15:49:43.464Z,68.05
2023-04-15T15:52:09.857Z,68.05
2023-04-15T15:54:36.359Z,68.22
2023-04-15T15:57:02.632Z,68.13
2023-04-15T15:59:29.050Z,68.04
2023-04-15T16:01:55.771Z,68.03
2023-04-15T16:04:22.495Z,68.24
2023-04-15T16:06:49.237Z,68.37
2023-04-15T16:09:15.803Z,68.13
2023-04-15T16:11:42.204Z,67.99
2023-04-15T16:14:08.701Z,68.27
2023-04-15T16:16:35.117Z,68.42
2023-04-15T16:19:01.731Z,68.10
2023-04-15T16:21:28.124Z,68.16
2023-04-15T16:23:54.639Z,67.82
2023-04-15T16:26:20.971Z,68.02
2023-04-15T16:28:47.562Z,68.15
2023-04-15T16:31:13.940Z,68.05
2023-04-15T16:33:40.218Z,68.10
2023-04-15T16:36:07.083Z,67.67
2023-04-15T16:38:33.557Z,67.77
2023-04-15T16:41:00.021Z,67.89
2023-04-15T16:43:26.319Z,68.01
2023-04-15T16:45:52.628Z,67.98
2023-04-15T16:48:19.264Z,67.87
2023-04-15T16:50:45.648Z,67.48
2023-04-15T16:53:11.986Z,67.65
2023-04-15T16:55:38.398Z,67.54
2023-04-15T16:58:05.952Z,67.52
2023-04-15T17:00:33.576Z,67.83
2023-04-15T17:03:00.540Z,67.35
2023-04-15T17:05:27.176Z,67.48
2023-04-15T17:07:53.637Z,67.43
2023-04-15T17:10:20.057Z,67.08
2023-04-15T17:12:46.696Z,67.14
2023-04-15T17:15:13.201Z,66.87
2023-04-15T17:17:39.634Z,66.83
2023-04-15T17:20:06.029Z,66.96
2023-04-15T17:22:32.437Z,66.80
2023-04-15T17:24:58.937Z,66.58
2023-04-15T17:27:25.547Z,66.96
2023-04-15T17:29:51.883Z,66.90
2023-04-15T17:32:18.181Z,67.09
2023-04-15T17:34:50.642Z,66.59
2023-04-15T17:37:17.567Z,66.25
2023-04-15T17:39:43.918Z,66.30
2023-04-15T17:42:10.654Z,66.11
2023-04-15T17:44:37.099Z,66.18
2023-04-15T17:47:03.402Z,66.02
2023-04-15T17:49:29.762Z,65.71
2023-04-15T17:51:56.463Z,65.57
2023-04-15T17:54:22.778Z,65.49
2023-04-15T17:56:49.220Z,65.24
2023-04-15T17:59:15.752Z,65.30
2023-04-15T18:01:42.585Z,65.13
2023-04-15T18:04:09.798Z,64.93
2023-04-15T18:06:36.567Z,64.81
2023-04-15T18:09:03.080Z,64.65
2023-04-15T18:11:29.609Z,64.61
2023-04-15T18:13:56.053Z,64.87
2023-04-15T18:16:22.389Z,64.59
2023-04-15T18:18:48.772Z,64.89
2023-04-15T18:21:15.086Z,64.63
2023-04-15T18:23:41.371Z,64.70
2023-04-15T18:26:07.946Z,65.02
2023-04-15T18:28:34.389Z,64.84
2023-04-15T18:31:00.814Z,64.86
2023-04-15T18:33:27.459Z,64.94
2023-04-15T18:35:53.802Z,64.70
2023-04-15T18:38:20.137Z,64.79
2023-04-15T18:40:46.556Z,64.22
2023-04-15T18:43:13.134Z,64.64
2023-04-15T18:45:39.538Z,64.43
2023-04-15T18:48:06.236Z,64.34
2023-04-15T18:50:32.809Z,64.62
2023-04-15T18:52:59.527Z,64.35
2023-04-15T18:55:25.939Z,64.34
2023-04-15T18:57:52.297Z,64.59
2023-04-15T19:00:18.792Z,64.21
2023-04-15T19:02:45.706Z,64.47
2023-04-15T19:05:12.125Z,64.31
2023-04-15T19:07:38.894Z,64.41
2023-04-15T19:10:05.299Z,64.69
2023-04-15T19:12:31.701Z,64.33
2023-04-15T19:14:58.229Z,64.21
2023-04-15T19:17:24.622Z,64.71
2023-04-15T19:19:51.116Z,64.29
2023-04-15T19:22:17.746Z,64.44
2023-04-15T19:24:44.112Z,64.43
2023-04-15T19:27:10.465Z,64.46
2023-04-15T19:29:36.888Z,64.77
2023-04-15T19:32:03.241Z,64.85
2023-04-15T19:34:29.574Z,64.41
2023-04-15T19:36:55.997Z,64.85
2023-04-15T19:39:22.608Z,64.57
2023-04-15T19:41:48.951Z,64.52
2023-04-15T19:44:15.353Z,64.88
2023-04-15T19:46:42.125Z,64.70
2023-04-15T19:49:09.933Z,65.15
2023-04-15T19:51:36.254Z,65.25
2023-04-15T19:54:02.782Z,65.31
2023-04-15T19:56:29.185Z,65.16
2023-04-15T19:58:55.550Z,64.99
2023-04-15T20:01:22.170Z,65.19
2023-04-15T20:03:49.102Z,65.32
2023-04-15T20:06:15.665Z,65.29
2023-04-15T20:08:42.083Z,64.93
2023-04-15T20:11:08.436Z,64.94
2023-04-15T20:13:34.903Z,65.05
2023-04-15T20:16:01.483Z,65.12
2023-04-15T20:18:28.058Z,65.32
2023-04-15T20:20:54.592Z,64.97
2023-04-15T20:23:20.974Z,65.02
2023-04-15T20:25:47.347Z,64.99
2023-04-15T20:28:13.802Z,65.08
2023-04-15T20:30:40.436Z,65.18
2023-04-15T20:33:07.268Z,65.04
2023-04-15T20:35:33.690Z,65.18
2023-04-15T20:38:00.262Z,64.94
2023-04-15T20:40:26.703Z,64.99
2023-04-15T20:42:53.124Z,65.02
2023-04-15T20:45:19.460Z,64.90
2023-04-15T20:47:45.966Z,65.05
2023-04-15T20:50:12.506Z,65.27
2023-04-15T20:52:38.801Z,65.08
2023-04-15T20:55:05.128Z,65.05
2023-04-15T20:57:31.665Z,65.22
2023-04-15T20:59:58.173Z,64.94
2023-04-15T21:02:24.908Z,65.40
2023-04-15T21:04:51.718Z,65.22
2023-04-15T21:07:18.166Z,65.17
2023-04-15T21:09:44.596Z,65.34
2023-04-15T21:12:11.028Z,65.49
2023-04-15T21:14:37.406Z,65.30
2023-04-15T21:17:03.747Z,65.16
2023-04-15T21:19:30.354Z,65.10
2023-04-15T21:21:56.928Z,65.31
2023-04-15T21:24:23.413Z,65.40
2023-04-15T21:26:49.864Z,65.06
2023-04-15T21:29:16.146Z,65.51
2023-04-15T21:31:42.583Z,65.08
2023-04-15T21:34:09.513Z,65.07
2023-04-15T21:36:35.864Z,65.09
2023-04-15T21:39:02.626Z,64.99
2023-04-15T21:41:28.991Z,65.11
2023-04-15T21:43:55.677Z,65.04
2023-04-15T21:46:25.707Z,65.47
2023-04-15T21:48:59.412Z,65.10
2023-04-15T21:51:25.823Z,65.37
2023-04-15T21:53:52.206Z,65.16
2023-04-15T21:56:18.587Z,64.86
2023-04-15T21:58:45.002Z,64.92
2023-04-15T22:01:11.445Z,64.85
2023-04-15T22:03:38.188Z,64.54
2023-04-15T22:06:04.688Z,64.38
2023-04-15T22:08:38.197Z,64.55
2023-04-15T22:11:07.937Z,64.32
2023-04-15T22:13:34.417Z,64.24
2023-04-15T22:16:00.854Z,64.47
2023-04-15T22:18:27.537Z,64.05
2023-04-15T22:20:54.216Z,63.96
2023-04-15T22:23:20.519Z,63.77
2023-04-15T22:25:46.884Z,64.10
2023-04-15T22:28:13.231Z,63.96
2023-04-15T22:30:39.990Z,63.80
2023-04-15T22:33:06.307Z,64.21
2023-04-15T22:35:32.627Z,63.68
2023-04-15T22:37:59.100Z,63.79
2023-04-15T22:40:25.545Z,63.96
2023-04-15T22:42:51.985Z,63.70
2023-04-15T22:45:18.418Z,63.65
2023-04-15T22:47:44.788Z,63.66
2023-04-15T22:50:11.124Z,63.70
2023-04-15T22:52:37.616Z,63.64
2023-04-15T22:55:04.362Z,63.54
2023-04-15T22:57:30.683Z,63.76
2023-04-15T22:59:57.049Z,63.78
2023-04-15T23:02:23.498Z,63.50
2023-04-15T23:04:49.999Z,63.83
2023-04-15T23:07:16.419Z,63.44
2023-04-15T23:09:42.895Z,63.39
2023-04-15T23:12:09.218Z,63.40
2023-04-15T23:14:35.513Z,63.72
2023-04-15T23:17:02.322Z,63.77
2023-04-15T23:19:29.404Z,63.41
2023-04-15T23:21:55.761Z,63.45
2023-04-15T23:24:22.207Z,63.13
2023-04-15T23:26:48.517Z,63.14
2023-04-15T23:29:14.943Z,63.46
2023-04-15T23:31:41.314Z,63.08
2023-04-15T23:34:07.912Z,63.37
2023-04-15T23:36:34.440Z,62.92
2023-04-15T23:39:00.883Z,63.38
2023-04-15T23:41:27.220Z,63.01
2023-04-15T23:43:53.546Z,63.04
2023-04-15T23:46:19.924Z,63.07
2023-04-15T23:48:46.493Z,63.08
2023-04-15T23:51:13.039Z,62.93
2023-04-15T23:53:39.763Z,63.27
2023-04-15T23:56:06.273Z,63.01
2023-04-15T23:58:34.518Z,62.98
